createdAt,value
2022-09-04T00:00:01.696Z,85.50
2022-09-04T00:10:31.750Z,87.00
2022-09-04T00:20:40.055Z,86.70
2022-09-04T00:30:55.860Z,89.60
2022-09-04T00:41:01.290Z,88.00
2022-09-04T00:51:20.436Z,87.60
2022-09-04T01:01:29.314Z,85.70
2022-09-04T01:11:52.154Z,84.50
2022-09-04T01:22:13.476Z,85.00
2022-09-04T01:32:42.635Z,85.00
2022-09-04T01:42:55.872Z,83.50
2022-09-04T01:53:09.998Z,82.90
2022-09-04T02:03:25.016Z,84.30
2022-09-04T02:13:46.994Z,80.30
2022-09-04T02:24:10.691Z,83.90
2022-09-04T02:34:33.413Z,82.50
2022-09-04T02:45:03.412Z,81.40
2022-09-04T02:55:27.135Z,85.60
2022-09-04T03:05:36.092Z,84.00
2022-09-04T03:15:40.455Z,83.60
2022-09-04T03:26:09.417Z,84.60
2022-09-04T03:36:43.834Z,87.70
2022-09-04T03:47:21.797Z,90.90
2022-09-04T03:57:47.794Z,93.90
2022-09-04T04:08:16.134Z,95.90
2022-09-04T04:18:33.395Z,95.40
2022-09-04T04:28:50.512Z,96.00
2022-09-04T04:39:15.595Z,96.10
2022-09-04T04:50:09.093Z,93.80
2022-09-04T05:00:27.760Z,91.10
2022-09-04T05:10:51.792Z,90.90
2022-09-04T05:21:23.675Z,95.90
2022-09-04T05:32:01.013Z,99.00
2022-09-04T05:42:15.436Z,99.90
2022-09-04T05:52:55.094Z,99.90
2022-09-04T06:03:24.677Z,99.90
2022-09-04T06:13:26.596Z,99.90
2022-09-04T06:24:07.313Z,99.90
2022-09-04T06:34:47.894Z,99.90
2022-09-04T06:45:28.797Z,99.90
2022-09-04T06:55:35.354Z,99.90
2022-09-04T07:06:20.193Z,99.90
2022-09-04T07:16:35.959Z,99.90
2022-09-04T07:27:13.342Z,99.90
2022-09-04T07:37:52.616Z,99.90
2022-09-04T07:48:20.110Z,94.60
2022-09-04T07:59:15.397Z,94.80
2022-09-04T08:10:01.415Z,91.00
2022-09-04T08:20:21.898Z,82.40
2022-09-04T08:30:24.175Z,72.40
2022-09-04T08:40:38.396Z,62.90
2022-09-04T08:50:53.615Z,56.40
2022-09-04T09:01:22.912Z,52.50
2022-09-04T09:12:08.096Z,52.10
2022-09-04T09:22:40.592Z,51.20
2022-09-04T09:33:10.379Z,47.60
2022-09-04T09:43:53.376Z,48.50
2022-09-04T09:54:24.175Z,45.40
2022-09-04T10:04:47.754Z,45.50
2022-09-04T10:15:23.756Z,42.20
2022-09-04T10:25:58.675Z,38.00
2022-09-04T10:36:15.137Z,36.60
2022-09-04T10:46:42.755Z,38.90
2022-09-04T10:56:57.354Z,33.30
2022-09-04T11:07:28.724Z,30.00
2022-09-04T11:17:32.653Z,33.70
2022-09-04T11:28:01.178Z,27.20
2022-09-04T11:38:14.135Z,25.70
2022-09-04T11:48:24.917Z,24.70
2022-09-04T11:59:01.055Z,20.10
2022-09-04T12:09:04.615Z,21.10
2022-09-04T12:19:19.614Z,19.30
2022-09-04T12:29:50.575Z,23.30
2022-09-04T12:40:36.515Z,17.90
2022-09-04T12:50:56.476Z,16.00
2022-09-04T13:01:22.447Z,15.00
2022-09-04T13:11:37.106Z,12.50
2022-09-04T13:21:52.075Z,15.20
2022-09-04T13:32:03.519Z,13.30
2022-09-04T13:42:26.941Z,10.70
2022-09-04T13:52:59.843Z,12.20
2022-09-04T14:03:14.654Z,12.10
2022-09-04T14:13:43.657Z,11.30
2022-09-04T14:24:05.194Z,10.60
2022-09-04T14:34:28.876Z,9.90
2022-09-04T14:45:04.656Z,9.70
2022-09-04T14:55:06.936Z,9.70
2022-09-04T15:05:50.175Z,10.60
2022-09-04T15:16:04.533Z,9.70
2022-09-04T15:26:30.075Z,9.40
2022-09-04T15:36:33.216Z,9.60
2022-09-04T15:46:43.861Z,10.50
2022-09-04T15:56:47.976Z,8.50
2022-09-04T16:07:22.795Z,8.30
2022-09-04T16:17:43.675Z,9.10
2022-09-04T16:27:56.419Z,9.30
2022-09-04T16:38:24.224Z,7.40
2022-09-04T16:49:00.733Z,7.60
2022-09-04T16:59:41.477Z,14.30
2022-09-04T17:10:04.840Z,15.20
2022-09-04T17:20:16.216Z,14.30
2022-09-04T17:30:43.483Z,17.50
2022-09-04T17:41:46.535Z,17.30
2022-09-04T17:51:39.815Z,21.20
2022-09-04T18:02:01.941Z,29.00
2022-09-04T18:12:05.254Z,33.10
2022-09-04T18:22:26.918Z,42.70
2022-09-04T18:37:16.937Z,46.10
2022-09-04T18:50:25.657Z,45.60
2022-09-04T18:54:06.054Z,43.50
2022-09-04T19:04:23.633Z,47.80
2022-09-04T19:14:38.674Z,48.00
2022-09-04T19:24:50.000Z,48.20
2022-09-04T19:35:21.214Z,49.20
2022-09-04T19:46:17.428Z,49.50
2022-09-04T19:57:17.774Z,43.60
2022-09-04T20:07:10.213Z,45.30
2022-09-04T20:17:47.217Z,43.50
2022-09-04T20:28:04.195Z,40.00
2022-09-04T20:38:25.399Z,46.30
2022-09-04T20:52:52.231Z,48.30
2022-09-04T21:03:10.524Z,46.10
2022-09-04T21:10:24.096Z,47.50
2022-09-04T21:20:51.904Z,50.40
2022-09-04T21:31:44.690Z,50.30
2022-09-04T21:42:31.294Z,50.00
2022-09-04T21:52:50.389Z,52.90
2022-09-04T22:03:33.377Z,55.40
2022-09-04T22:14:19.214Z,52.90
2022-09-04T22:24:57.291Z,54.50
2022-09-04T22:35:36.143Z,52.80
2022-09-04T22:45:39.553Z,56.40
2022-09-04T22:56:22.840Z,57.20
2022-09-04T23:11:07.026Z,56.30
2022-09-04T23:16:57.652Z,60.90
2022-09-04T23:27:33.535Z,62.30
2022-09-04T23:38:00.631Z,61.80
2022-09-04T23:48:39.814Z,63.00
2022-09-04T23:59:05.675Z,63.90
